TimeEDT,TemperatureF,Dew PointF,Humidity,Sea Level PressureIn,VisibilityMPH,Wind Direction,Wind SpeedMPH,Gust SpeedMPH,PrecipitationIn,Events,Conditions,WindDirDegrees,DateUTC
12:15 AM,37.4,35.6,93,30.33,10.0,SE,3.5,-,N/A,,Clear,130,2013-09-17 04:15:00
12:35 AM,35.6,33.8,93,30.33,10.0,SE,3.5,-,N/A,,Clear,130,2013-09-17 04:35:00
12:55 AM,35.6,33.8,93,30.34,10.0,SE,4.6,-,N/A,,Clear,140,2013-09-17 04:55:00
1:15 AM,35.6,33.8,93,30.34,10.0,SE,4.6,-,N/A,,Clear,140,2013-09-17 05:15:00
1:35 AM,35.6,33.8,93,30.35,10.0,SSE,5.8,-,N/A,,Clear,150,2013-09-17 05:35:00
1:55 AM,35.6,33.8,93,30.35,10.0,SSE,4.6,-,N/A,,Clear,150,2013-09-17 05:55:00
2:15 AM,35.6,33.8,93,30.35,10.0,SE,4.6,-,N/A,,Clear,130,2013-09-17 06:15:00
2:35 AM,35.6,33.8,93,30.35,10.0,Calm,Calm,-,N/A,,Clear,0,2013-09-17 06:35:00
2:55 AM,33.8,33.8,100,30.35,10.0,SE,4.6,-,N/A,,Clear,130,2013-09-17 06:55:00
3:15 AM,33.8,32.0,93,30.36,10.0,Calm,Calm,-,N/A,,Clear,0,2013-09-17 07:15:00
3:35 AM,35.6,32.0,87,30.36,10.0,SE,5.8,-,N/A,,Clear,130,2013-09-17 07:35:00
3:55 AM,35.6,32.0,87,30.37,10.0,Calm,Calm,-,N/A,,Clear,0,2013-09-17 07:55:00
4:15 AM,33.8,32.0,93,30.37,10.0,Calm,Calm,-,N/A,,Clear,0,2013-09-17 08:15:00
4:35 AM,33.8,30.2,87,30.37,10.0,SE,4.6,-,N/A,,Clear,140,2013-09-17 08:35:00
4:55 AM,33.8,30.2,87,30.38,10.0,SE,3.5,-,N/A,,Clear,140,2013-09-17 08:55:00
5:15 AM,33.8,32.0,93,30.39,10.0,Calm,Calm,-,N/A,,Clear,0,2013-09-17 09:15:00
5:35 AM,33.8,30.2,87,30.39,10.0,SE,5.8,-,N/A,,Clear,130,2013-09-17 09:35:00
5:55 AM,33.8,30.2,87,30.40,10.0,Calm,Calm,-,N/A,,Clear,0,2013-09-17 09:55:00
6:15 AM,33.8,30.2,87,30.41,10.0,SSE,5.8,-,N/A,,Clear,150,2013-09-17 10:15:00
6:35 AM,33.8,32.0,93,30.42,10.0,SE,4.6,-,N/A,,Clear,130,2013-09-17 10:35:00
6:55 AM,32.0,30.2,93,30.43,10.0,ESE,5.8,-,N/A,,Clear,120,2013-09-17 10:55:00
7:15 AM,33.8,32.0,93,30.43,10.0,East,4.6,-,N/A,,Clear,100,2013-09-17 11:15:00
7:35 AM,35.6,33.8,93,30.44,10.0,SE,4.6,-,N/A,,Clear,130,2013-09-17 11:35:00
7:55 AM,35.6,33.8,93,30.44,10.0,SE,4.6,-,N/A,,Clear,140,2013-09-17 11:55:00
8:15 AM,37.4,33.8,87,30.45,10.0,Calm,Calm,-,N/A,,Clear,0,2013-09-17 12:15:00
8:35 AM,37.4,35.6,93,30.45,10.0,Calm,Calm,-,N/A,,Clear,0,2013-09-17 12:35:00
8:55 AM,39.2,37.4,93,30.46,10.0,Calm,Calm,-,N/A,,Clear,0,2013-09-17 12:55:00
9:15 AM,42.8,37.4,81,30.46,10.0,Calm,Calm,-,N/A,,Clear,0,2013-09-17 13:15:00
9:35 AM,42.8,37.4,81,30.47,10.0,Calm,Calm,-,N/A,,Clear,0,2013-09-17 13:35:00
9:55 AM,44.6,39.2,81,30.47,10.0,North,6.9,-,N/A,,Clear,10,2013-09-17 13:55:00
10:15 AM,46.4,37.4,71,30.47,10.0,North,5.8,-,N/A,,Clear,10,2013-09-17 14:15:00
10:35 AM,48.2,37.4,66,30.47,10.0,NNW,8.1,-,N/A,,Clear,340,2013-09-17 14:35:00
10:55 AM,48.2,37.4,66,30.46,10.0,NNW,6.9,-,N/A,,Clear,340,2013-09-17 14:55:00
11:15 AM,51.8,39.2,62,30.45,10.0,NNW,5.8,-,N/A,,Clear,340,2013-09-17 15:15:00
11:35 AM,51.8,39.2,62,30.45,10.0,NNW,4.6,-,N/A,,Clear,330,2013-09-17 15:35:00
11:55 AM,53.6,37.4,54,30.45,10.0,WNW,5.8,-,N/A,,Clear,300,2013-09-17 15:55:00
12:15 PM,53.6,37.4,54,30.45,10.0,North,3.5,-,N/A,,Clear,350,2013-09-17 16:15:00
12:35 PM,55.4,37.4,51,30.44,10.0,NNW,4.6,-,N/A,,Clear,340,2013-09-17 16:35:00
12:55 PM,55.4,39.2,54,30.43,10.0,WNW,4.6,-,N/A,,Clear,300,2013-09-17 16:55:00
1:15 PM,55.4,37.4,51,30.42,10.0,Calm,Calm,-,N/A,,Clear,0,2013-09-17 17:15:00
1:35 PM,55.4,39.2,54,30.41,10.0,North,6.9,-,N/A,,Clear,350,2013-09-17 17:35:00
1:55 PM,57.2,39.2,51,30.41,10.0,Calm,Calm,-,N/A,,Clear,0,2013-09-17 17:55:00
2:15 PM,57.2,39.2,51,30.41,10.0,North,5.8,-,N/A,,Clear,350,2013-09-17 18:15:00
2:35 PM,57.2,39.2,51,30.39,10.0,Calm,Calm,-,N/A,,Clear,0,2013-09-17 18:35:00
2:55 PM,59.0,41.0,51,30.39,10.0,West,5.8,-,N/A,,Clear,280,2013-09-17 18:55:00
3:15 PM,59.0,41.0,51,30.38,10.0,NNW,3.5,-,N/A,,Clear,330,2013-09-17 19:15:00
3:35 PM,59.0,41.0,51,30.37,10.0,West,4.6,-,N/A,,Clear,270,2013-09-17 19:35:00
3:55 PM,59.0,41.0,51,30.37,10.0,NNW,6.9,-,N/A,,Clear,330,2013-09-17 19:55:00
4:15 PM,59.0,41.0,51,30.36,10.0,Calm,Calm,-,N/A,,Clear,0,2013-09-17 20:15:00
4:35 PM,59.0,41.0,51,30.36,10.0,NW,6.9,-,N/A,,Clear,320,2013-09-17 20:35:00
4:55 PM,59.0,41.0,51,30.36,10.0,West,5.8,-,N/A,,Clear,280,2013-09-17 20:55:00
5:15 PM,59.0,41.0,51,30.36,10.0,WNW,5.8,-,N/A,,Clear,290,2013-09-17 21:15:00
5:35 PM,59.0,41.0,51,30.35,10.0,WNW,3.5,-,N/A,,Clear,300,2013-09-17 21:35:00
5:55 PM,59.0,41.0,51,30.35,10.0,NW,4.6,-,N/A,,Clear,310,2013-09-17 21:55:00
6:15 PM,57.2,42.8,59,30.35,10.0,NW,3.5,-,N/A,,Clear,310,2013-09-17 22:15:00
6:35 PM,57.2,42.8,59,30.35,10.0,NNW,3.5,-,N/A,,Clear,330,2013-09-17 22:35:00
6:55 PM,55.4,42.8,63,30.35,10.0,SSE,4.6,-,N/A,,Clear,150,2013-09-17 22:55:00
7:15 PM,51.8,44.6,76,30.34,10.0,ESE,4.6,-,N/A,,Clear,120,2013-09-17 23:15:00
7:35 PM,50.0,44.6,82,30.34,10.0,SSE,4.6,-,N/A,,Clear,150,2013-09-17 23:35:00
7:55 PM,48.2,44.6,87,30.35,10.0,SE,4.6,-,N/A,,Clear,140,2013-09-17 23:55:00
8:15 PM,48.2,44.6,87,30.36,10.0,Calm,Calm,-,N/A,,Clear,0,2013-09-18 00:15:00
8:35 PM,48.2,44.6,87,30.36,10.0,SE,10.4,-,N/A,,Clear,140,2013-09-18 00:35:00
8:55 PM,48.2,44.6,87,30.35,10.0,SE,10.4,-,N/A,,Clear,130,2013-09-18 00:55:00
9:15 PM,46.4,44.6,93,30.36,10.0,SE,5.8,-,N/A,,Clear,140,2013-09-18 01:15:00
9:35 PM,46.4,42.8,87,30.35,10.0,ESE,11.5,-,N/A,,Clear,120,2013-09-18 01:35:00
9:55 PM,46.4,42.8,87,30.35,10.0,SSE,5.8,-,N/A,,Clear,160,2013-09-18 01:55:00
10:15 PM,46.4,42.8,87,30.35,10.0,SSE,4.6,-,N/A,,Clear,150,2013-09-18 02:15:00
10:35 PM,44.6,42.8,93,30.35,10.0,ESE,11.5,-,N/A,,Clear,110,2013-09-18 02:35:00
10:55 PM,44.6,41.0,87,30.36,10.0,SSE,6.9,-,N/A,,Clear,150,2013-09-18 02:55:00
11:15 PM,42.8,41.0,93,30.36,10.0,ESE,10.4,-,N/A,,Clear,120,2013-09-18 03:15:00
11:35 PM,42.8,39.2,87,30.35,10.0,SSE,5.8,-,N/A,,Clear,150,2013-09-18 03:35:00
11:55 PM,44.6,39.2,81,30.35,10.0,SSE,6.9,-,N/A,,Clear,160,2013-09-18 03:55:00